Time;durP1;ratioP1;P1;durP2;ratioP2;P2;SDS_P1;SDS_P2;PMS_P1;PMS_P2;Temp;Humidity;BMP_temperature;BMP_pressure;BME280_temperature;BME280_humidity;BME280_pressure;Samples;Min_cycle;Max_cycle;Signal;HPM_P1;HPM_P2
2023/09/21 00:02:19;;;;;;;0.10;0.10;;;;;;;;;;4814886;29;20049;-90
2023/09/21 00:04:45;;;;;;;0.10;0.10;;;;;;;;;;4814560;29;20081;-91
2023/09/21 00:07:11;;;;;;;0.30;0.30;;;;;;;;;;4829595;29;20045;-91
2023/09/21 00:09:38;;;;;;;0.20;0.20;;;;;;;;;;4844816;29;20141;-91
2023/09/21 00:12:04;;;;;;;0.10;0.10;;;;;;;;;;4814273;29;20048;-91
2023/09/21 00:14:35;;;;;;;0.10;0.10;;;;;;;;;;4829131;29;20589;-91
2023/09/21 00:17:03;;;;;;;0.10;0.10;;;;;;;;;;4830198;29;20045;-91
2023/09/21 00:19:30;;;;;;;0.10;0.10;;;;;;;;;;4844516;29;20053;-90
2023/09/21 00:21:57;;;;;;;0.10;0.10;;;;;;;;;;4814374;29;20037;-90
2023/09/21 00:24:23;;;;;;;0.17;0.17;;;;;;;;;;4829453;29;20141;-91
2023/09/21 00:26:51;;;;;;;0.20;0.20;;;;;;;;;;4813819;29;20065;-91
2023/09/21 00:29:18;;;;;;;0.10;0.10;;;;;;;;;;4829439;29;20057;-91
2023/09/21 00:31:44;;;;;;;0.10;0.10;;;;;;;;;;4829594;29;20165;-91
2023/09/21 00:34:10;;;;;;;0.10;0.10;;;;;;;;;;4814193;29;20033;-90
2023/09/21 00:36:36;;;;;;;0.63;0.63;;;;;;;;;;4814350;29;20054;-90
2023/09/21 00:39:03;;;;;;;0.10;0.10;;;;;;;;;;4828989;29;20045;-91
2023/09/21 00:41:32;;;;;;;0.10;0.10;;;;;;;;;;4829575;29;20084;-90
2023/09/21 00:43:58;;;;;;;0.20;0.20;;;;;;;;;;4813806;29;20425;-90
2023/09/21 00:46:27;;;;;;;0.17;0.17;;;;;;;;;;4813787;29;20045;-91
2023/09/21 00:48:52;;;;;;;0.10;0.10;;;;;;;;;;4814062;29;20042;-91
2023/09/21 00:51:18;;;;;;;0.10;0.10;;;;;;;;;;4829347;29;20041;-91
2023/09/21 00:53:45;;;;;;;0.10;0.10;;;;;;;;;;4813662;29;20201;-91
2023/09/21 00:56:12;;;;;;;0.10;0.10;;;;;;;;;;4813957;29;20097;-91
2023/09/21 00:58:40;;;;;;;0.10;0.10;;;;;;;;;;4814185;29;20509;-91
2023/09/21 01:01:09;;;;;;;0.10;0.10;;;;;;;;;;4828967;29;20053;-90
2023/09/21 01:03:37;;;;;;;0.10;0.10;;;;;;;;;;4828552;29;20064;-90
2023/09/21 01:06:06;;;;;;;0.10;0.10;;;;;;;;;;4813724;29;20132;-91
2023/09/21 01:08:33;;;;;;;0.10;0.10;;;;;;;;;;4813570;29;20041;-90
2023/09/21 01:11:04;;;;;;;0.20;0.20;;;;;;;;;;4828743;29;20046;-90
2023/09/21 01:13:35;;;;;;;0.47;0.40;;;;;;;;;;4829354;29;20037;-90
2023/09/21 01:16:01;;;;;;;0.43;0.40;;;;;;;;;;4816538;29;20089;-90
2023/09/21 01:18:27;;;;;;;0.10;0.10;;;;;;;;;;4819495;29;20046;-91
2023/09/21 01:20:55;;;;;;;0.10;0.10;;;;;;;;;;4834539;29;20045;-90
2023/09/21 01:23:22;;;;;;;0.10;0.10;;;;;;;;;;4819249;29;20114;-89
2023/09/21 01:25:51;;;;;;;0.22;0.22;;;;;;;;;;4834387;29;20065;-90
2023/09/21 01:28:23;;;;;;;0.10;0.10;;;;;;;;;;4819365;29;20429;-90
2023/09/21 01:30:51;;;;;;;0.10;0.10;;;;;;;;;;4819024;29;20136;-91
2023/09/21 01:33:17;;;;;;;0.20;0.20;;;;;;;;;;4819589;29;20046;-90
2023/09/21 01:35:43;;;;;;;0.20;0.20;;;;;;;;;;4834497;29;20381;-90
2023/09/21 01:38:09;;;;;;;0.20;0.20;;;;;;;;;;4834553;29;20045;-89
2023/09/21 01:40:35;;;;;;;0.20;0.20;;;;;;;;;;4819235;29;20295;-90
2023/09/21 01:43:06;;;;;;;0.17;0.17;;;;;;;;;;4819332;29;20064;-90
2023/09/21 01:45:32;;;;;;;0.10;0.10;;;;;;;;;;4834566;29;20133;-90
2023/09/21 01:48:00;;;;;;;0.20;0.20;;;;;;;;;;4834709;29;20060;-91
2023/09/21 01:50:28;;;;;;;0.40;0.40;;;;;;;;;;4819425;29;20489;-91
2023/09/21 01:52:54;;;;;;;0.10;0.10;;;;;;;;;;4834067;29;20101;-91
2023/09/21 01:55:20;;;;;;;0.10;0.10;;;;;;;;;;4818948;29;20048;-90
2023/09/21 01:57:47;;;;;;;0.43;0.43;;;;;;;;;;4834472;29;20037;-91
2023/09/21 02:00:25;;;;;;;0.10;0.10;;;;;;;;;;4819438;29;20053;-90
2023/09/21 02:02:51;;;;;;;0.10;0.10;;;;;;;;;;4835849;29;20148;-91
2023/09/21 02:05:17;;;;;;;0.17;0.17;;;;;;;;;;4819118;29;20045;-90
2023/09/21 02:07:43;;;;;;;0.10;0.10;;;;;;;;;;4834178;29;20052;-90
2023/09/21 02:10:11;;;;;;;0.10;0.10;;;;;;;;;;4819024;29;20045;-91
2023/09/21 02:12:38;;;;;;;0.10;0.10;;;;;;;;;;4819133;29;20087;-90
2023/09/21 02:15:10;;;;;;;0.10;0.10;;;;;;;;;;4818895;29;20532;-90
2023/09/21 02:17:36;;;;;;;0.13;0.13;;;;;;;;;;4833941;29;20063;-91
2023/09/21 02:20:04;;;;;;;0.10;0.10;;;;;;;;;;4834129;29;20404;-91
2023/09/21 02:22:30;;;;;;;0.13;0.13;;;;;;;;;;4819273;29;20461;-91
2023/09/21 02:24:56;;;;;;;0.10;0.10;;;;;;;;;;4834065;29;20136;-92
2023/09/21 02:27:22;;;;;;;0.15;0.15;;;;;;;;;;4831853;29;20378;-91
2023/09/21 02:29:48;;;;;;;0.20;0.20;;;;;;;;;;4816205;29;20110;-91
2023/09/21 02:32:14;;;;;;;0.10;0.10;;;;;;;;;;4816204;29;20532;-90
2023/09/21 02:34:40;;;;;;;0.30;0.30;;;;;;;;;;4831045;29;20041;-91
2023/09/21 02:37:06;;;;;;;0.10;0.10;;;;;;;;;;4830985;29;20489;-91
2023/09/21 02:39:33;;;;;;;1.30;0.38;;;;;;;;;;4815767;29;20115;-90
2023/09/21 02:41:59;;;;;;;0.10;0.10;;;;;;;;;;4830951;29;20049;-90
2023/09/21 02:44:25;;;;;;;2.60;0.63;;;;;;;;;;4815858;29;20400;-90
2023/09/21 02:46:52;;;;;;;0.10;0.10;;;;;;;;;;4815625;29;20050;-90
2023/09/21 02:49:18;;;;;;;0.10;0.10;;;;;;;;;;4830796;29;20060;-90
2023/09/21 02:51:44;;;;;;;0.10;0.10;;;;;;;;;;4830698;29;20053;-90
2023/09/21 02:54:11;;;;;;;0.20;0.20;;;;;;;;;;4815859;29;20046;-90
2023/09/21 02:56:37;;;;;;;0.10;0.10;;;;;;;;;;4846007;29;20120;-91
2023/09/21 02:59:03;;;;;;;0.10;0.10;;;;;;;;;;4815606;29;20077;-91
2023/09/21 03:01:30;;;;;;;0.10;0.10;;;;;;;;;;4815494;29;20217;-91
2023/09/21 03:03:56;;;;;;;0.10;0.10;;;;;;;;;;4830444;29;20504;-91
2023/09/21 03:06:22;;;;;;;0.10;0.10;;;;;;;;;;4815907;29;20049;-92
2023/09/21 03:08:48;;;;;;;0.10;0.10;;;;;;;;;;4830928;29;20404;-91
2023/09/21 03:11:14;;;;;;;0.10;0.10;;;;;;;;;;4830359;29;20065;-91
2023/09/21 03:13:40;;;;;;;0.10;0.10;;;;;;;;;;4815325;29;20042;-91
2023/09/21 03:16:10;;;;;;;0.10;0.10;;;;;;;;;;4815385;29;20041;-91
2023/09/21 03:18:36;;;;;;;0.10;0.10;;;;;;;;;;4815760;29;20044;-91
2023/09/21 03:21:09;;;;;;;0.10;0.10;;;;;;;;;;4830876;29;20037;-91
2023/09/21 03:23:35;;;;;;;0.20;0.20;;;;;;;;;;4845357;29;20485;-91
2023/09/21 03:26:02;;;;;;;0.20;0.20;;;;;;;;;;4815073;29;20061;-91
2023/09/21 03:28:28;;;;;;;0.52;0.28;;;;;;;;;;4830440;29;20088;-91
2023/09/21 03:30:56;;;;;;;0.10;0.10;;;;;;;;;;4829920;29;20093;-91
2023/09/21 03:33:23;;;;;;;0.10;0.10;;;;;;;;;;4815648;29;20098;-92
2023/09/21 03:35:49;;;;;;;0.10;0.10;;;;;;;;;;4830672;29;20077;-91
2023/09/21 03:38:18;;;;;;;0.20;0.20;;;;;;;;;;4814673;29;20042;-91
2023/09/21 03:40:44;;;;;;;0.20;0.20;;;;;;;;;;4829808;29;20488;-91
2023/09/21 03:43:10;;;;;;;0.10;0.10;;;;;;;;;;4814785;29;20201;-91
2023/09/21 03:45:38;;;;;;;0.10;0.10;;;;;;;;;;4814268;29;20056;-91
2023/09/21 03:48:06;;;;;;;0.10;0.10;;;;;;;;;;4830224;29;20060;-90
2023/09/21 03:50:32;;;;;;;0.10;0.10;;;;;;;;;;4829907;29;20045;-91
2023/09/21 03:52:59;;;;;;;0.10;0.10;;;;;;;;;;4829828;29;20038;-91
2023/09/21 03:55:25;;;;;;;0.10;0.10;;;;;;;;;;4829759;29;20070;-91
2023/09/21 03:57:51;;;;;;;0.10;0.10;;;;;;;;;;4814720;29;20094;-91
2023/09/21 04:00:30;;;;;;;0.10;0.10;;;;;;;;;;4814561;29;20041;-91
2023/09/21 04:02:57;;;;;;;0.10;0.10;;;;;;;;;;4816163;29;20048;-91
2023/09/21 04:05:26;;;;;;;0.10;0.10;;;;;;;;;;4814841;29;20060;-91
2023/09/21 04:07:53;;;;;;;0.10;0.10;;;;;;;;;;4829872;29;20114;-91
2023/09/21 04:10:20;;;;;;;0.10;0.10;;;;;;;;;;4829777;29;20052;-91
2023/09/21 04:12:46;;;;;;;0.10;0.10;;;;;;;;;;4814455;29;20128;-91
2023/09/21 04:15:12;;;;;;;0.10;0.10;;;;;;;;;;4829352;29;20524;-91
2023/09/21 04:17:41;;;;;;;0.10;0.10;;;;;;;;;;4814454;29;20053;-91
2023/09/21 04:20:11;;;;;;;0.10;0.10;;;;;;;;;;4829479;29;20047;-90
2023/09/21 04:22:40;;;;;;;0.20;0.20;;;;;;;;;;4830279;29;20113;-91
2023/09/21 04:25:07;;;;;;;0.10;0.10;;;;;;;;;;4829463;29;20050;-91
2023/09/21 04:27:34;;;;;;;0.10;0.10;;;;;;;;;;4814170;29;20065;-91
2023/09/21 04:30:00;;;;;;;0.30;0.30;;;;;;;;;;4829444;29;20048;-92
2023/09/21 04:32:26;;;;;;;0.10;0.10;;;;;;;;;;4813785;29;20038;-91
2023/09/21 04:34:52;;;;;;;0.13;0.13;;;;;;;;;;4828891;29;20061;-92
2023/09/21 04:37:18;;;;;;;0.20;0.20;;;;;;;;;;4844290;29;20041;-92
2023/09/21 04:39:47;;;;;;;0.15;0.15;;;;;;;;;;4844234;29;20560;-92
2023/09/21 04:42:13;;;;;;;0.20;0.20;;;;;;;;;;4829478;29;20178;-91
2023/09/21 04:44:39;;;;;;;0.20;0.20;;;;;;;;;;4813854;29;20085;-91
2023/09/21 04:47:05;;;;;;;0.20;0.20;;;;;;;;;;4828957;29;20424;-92
2023/09/21 04:49:31;;;;;;;0.10;0.10;;;;;;;;;;4813666;29;20097;-91
2023/09/21 04:51:57;;;;;;;0.10;0.10;;;;;;;;;;4813827;29;20045;-91
2023/09/21 04:54:23;;;;;;;0.10;0.10;;;;;;;;;;4829116;29;20048;-91
2023/09/21 04:56:52;;;;;;;0.20;0.20;;;;;;;;;;4828644;29;20042;-91
2023/09/21 04:59:20;;;;;;;0.10;0.10;;;;;;;;;;4814405;29;20052;-92
2023/09/21 05:01:47;;;;;;;0.13;0.13;;;;;;;;;;4813744;29;20049;-91
2023/09/21 05:04:13;;;;;;;0.20;0.20;;;;;;;;;;4828865;29;20109;-91
2023/09/21 05:06:39;;;;;;;0.10;0.10;;;;;;;;;;4828714;29;20091;-90
2023/09/21 05:09:05;;;;;;;0.20;0.20;;;;;;;;;;4813539;29;20087;-91
2023/09/21 05:11:38;;;;;;;0.10;0.10;;;;;;;;;;4813451;29;20081;-91
2023/09/21 05:14:10;;;;;;;0.10;0.10;;;;;;;;;;4814314;29;20042;-90
2023/09/21 05:16:40;;;;;;;0.10;0.10;;;;;;;;;;4814091;29;20056;-92
2023/09/21 05:19:08;;;;;;;0.20;0.20;;;;;;;;;;4813776;29;20041;-90
2023/09/21 05:21:35;;;;;;;0.10;0.10;;;;;;;;;;4828659;29;20049;-92
2023/09/21 05:24:01;;;;;;;0.10;0.10;;;;;;;;;;4813483;29;20045;-90
2023/09/21 05:26:27;;;;;;;0.10;0.10;;;;;;;;;;4813704;29;20375;-89
2023/09/21 05:28:53;;;;;;;0.10;0.10;;;;;;;;;;4813019;29;20089;-89
2023/09/21 05:31:19;;;;;;;0.10;0.10;;;;;;;;;;4828387;29;20336;-88
2023/09/21 05:33:45;;;;;;;0.10;0.10;;;;;;;;;;4828572;29;20042;-88
2023/09/21 05:36:15;;;;;;;0.10;0.10;;;;;;;;;;4828261;29;20041;-88
2023/09/21 05:38:41;;;;;;;0.10;0.10;;;;;;;;;;4843073;29;20038;-88
2023/09/21 05:41:07;;;;;;;0.25;0.25;;;;;;;;;;4828415;29;20477;-89
2023/09/21 05:43:33;;;;;;;0.20;0.20;;;;;;;;;;4828125;29;20041;-88
2023/09/21 05:45:59;;;;;;;0.15;0.15;;;;;;;;;;4828291;29;20050;-88
2023/09/21 05:48:25;;;;;;;0.13;0.13;;;;;;;;;;4828193;29;20053;-88
2023/09/21 05:50:52;;;;;;;0.10;0.10;;;;;;;;;;4843206;29;20110;-88
2023/09/21 05:53:17;;;;;;;0.10;0.10;;;;;;;;;;4827981;29;20050;-87
2023/09/21 05:55:44;;;;;;;0.10;0.10;;;;;;;;;;4828144;29;20056;-88
2023/09/21 05:58:10;;;;;;;0.20;0.20;;;;;;;;;;4827787;29;20094;-88
2023/09/21 06:00:36;;;;;;;0.20;0.20;;;;;;;;;;4827869;29;20046;-90
2023/09/21 06:03:02;;;;;;;0.10;0.10;;;;;;;;;;4830310;29;20045;-89
2023/09/21 06:05:28;;;;;;;0.20;0.20;;;;;;;;;;4831933;29;20041;-91
2023/09/21 06:07:54;;;;;;;0.15;0.15;;;;;;;;;;4831678;29;20045;-91
2023/09/21 06:10:21;;;;;;;0.10;0.10;;;;;;;;;;4816484;29;20046;-88
2023/09/21 06:12:47;;;;;;;0.17;0.17;;;;;;;;;;4830931;29;20054;-88
2023/09/21 06:15:13;;;;;;;0.10;0.10;;;;;;;;;;4816070;29;20408;-89
2023/09/21 06:17:40;;;;;;;0.10;0.10;;;;;;;;;;4846323;29;20101;-89
2023/09/21 06:20:06;;;;;;;0.10;0.10;;;;;;;;;;4816363;29;20045;-89
2023/09/21 06:22:32;;;;;;;0.10;0.10;;;;;;;;;;4846039;29;20072;-89
2023/09/21 06:24:59;;;;;;;0.10;0.10;;;;;;;;;;4830959;29;20524;-89
2023/09/21 06:27:25;;;;;;;0.10;0.10;;;;;;;;;;4815610;29;20061;-88
2023/09/21 06:29:51;;;;;;;0.10;0.10;;;;;;;;;;4815659;29;20042;-88
2023/09/21 06:32:18;;;;;;;0.13;0.13;;;;;;;;;;4830957;29;20132;-89
2023/09/21 06:34:45;;;;;;;0.20;0.20;;;;;;;;;;4830633;29;20132;-88
2023/09/21 06:37:14;;;;;;;0.20;0.20;;;;;;;;;;4815668;29;20128;-88
2023/09/21 06:39:40;;;;;;;0.10;0.10;;;;;;;;;;4815796;29;20458;-88
2023/09/21 06:42:06;;;;;;;0.10;0.10;;;;;;;;;;4830821;29;20370;-89
2023/09/21 06:44:32;;;;;;;0.10;0.10;;;;;;;;;;4815475;29;20046;-88
2023/09/21 06:46:58;;;;;;;0.10;0.10;;;;;;;;;;4830820;29;20041;-87
2023/09/21 06:49:26;;;;;;;0.20;0.20;;;;;;;;;;4830298;29;20132;-89
2023/09/21 06:51:54;;;;;;;0.20;0.20;;;;;;;;;;4830431;29;20045;-89
2023/09/21 06:54:20;;;;;;;0.10;0.10;;;;;;;;;;4830744;29;20157;-90
2023/09/21 06:56:46;;;;;;;0.15;0.15;;;;;;;;;;4830999;29;20105;-91
2023/09/21 06:59:12;;;;;;;0.20;0.20;;;;;;;;;;4815877;29;20045;-92
2023/09/21 07:01:39;;;;;;;0.20;0.20;;;;;;;;;;4816300;29;20076;-91
2023/09/21 07:04:05;;;;;;;0.20;0.20;;;;;;;;;;4815378;29;20117;-92
2023/09/21 07:06:31;;;;;;;0.20;0.20;;;;;;;;;;4815810;29;20093;-92
2023/09/21 07:08:57;;;;;;;0.10;0.10;;;;;;;;;;4815661;29;20041;-92
2023/09/21 07:11:24;;;;;;;0.10;0.10;;;;;;;;;;4815835;29;20145;-92
2023/09/21 07:13:51;;;;;;;0.10;0.10;;;;;;;;;;4845488;29;20049;-92
2023/09/21 07:16:19;;;;;;;0.10;0.10;;;;;;;;;;4815963;29;20405;-93
2023/09/21 07:18:48;;;;;;;0.20;0.20;;;;;;;;;;4815586;29;20109;-92
2023/09/21 07:21:14;;;;;;;0.10;0.10;;;;;;;;;;4815397;29;20053;-92
2023/09/21 07:23:40;;;;;;;0.10;0.10;;;;;;;;;;4815145;29;20136;-91
2023/09/21 07:26:08;;;;;;;0.10;0.10;;;;;;;;;;4811915;29;20439;-94
2023/09/21 07:28:34;;;;;;;0.20;0.20;;;;;;;;;;4828948;29;20050;-92
2023/09/21 07:31:01;;;;;;;0.10;0.10;;;;;;;;;;4827640;29;20056;-92
2023/09/21 07:33:30;;;;;;;0.10;0.10;;;;;;;;;;4812854;29;20042;-93
2023/09/21 07:35:56;;;;;;;0.20;0.20;;;;;;;;;;4812895;29;20322;-93
2023/09/21 07:38:23;;;;;;;0.20;0.20;;;;;;;;;;4812573;29;20137;-93
2023/09/21 07:40:49;;;;;;;0.20;0.20;;;;;;;;;;4827642;29;20049;-92
2023/09/21 07:43:16;;;;;;;0.10;0.10;;;;;;;;;;4812187;29;20045;-92
2023/09/21 07:45:42;;;;;;;0.13;0.13;;;;;;;;;;4812028;29;20049;-92
2023/09/21 07:48:08;;;;;;;0.20;0.20;;;;;;;;;;4812216;29;20053;-91
2023/09/21 07:50:35;;;;;;;0.10;0.10;;;;;;;;;;4811871;29;20049;-91
2023/09/21 07:53:03;;;;;;;0.10;0.10;;;;;;;;;;4813145;29;20045;-91
2023/09/21 07:55:30;;;;;;;0.20;0.20;;;;;;;;;;4812059;29;20094;-90
2023/09/21 07:57:56;;;;;;;0.10;0.10;;;;;;;;;;4813129;29;20398;-94
2023/09/21 08:00:22;;;;;;;0.10;0.10;;;;;;;;;;4811912;29;20474;-91
2023/09/21 08:02:48;;;;;;;0.35;0.17;;;;;;;;;;4841841;29;20041;-91
2023/09/21 08:05:15;;;;;;;0.10;0.10;;;;;;;;;;4811558;29;20101;-92
2023/09/21 08:07:41;;;;;;;0.10;0.10;;;;;;;;;;4826248;29;20076;-90
2023/09/21 08:10:07;;;;;;;0.10;0.10;;;;;;;;;;4841274;29;20057;-91
2023/09/21 08:12:38;;;;;;;0.20;0.20;;;;;;;;;;4826525;29;20100;-90
2023/09/21 08:15:06;;;;;;;0.10;0.10;;;;;;;;;;4827365;29;20375;-88
2023/09/21 08:17:32;;;;;;;0.10;0.10;;;;;;;;;;4825659;29;20141;-89
2023/09/21 08:20:03;;;;;;;0.10;0.10;;;;;;;;;;4811050;29;20053;-89
2023/09/21 08:22:29;;;;;;;0.10;0.10;;;;;;;;;;4841570;29;20050;-90
2023/09/21 08:24:55;;;;;;;0.20;0.20;;;;;;;;;;4840942;29;20046;-90
2023/09/21 08:27:22;;;;;;;0.10;0.10;;;;;;;;;;4810758;29;20520;-89
2023/09/21 08:29:50;;;;;;;0.10;0.10;;;;;;;;;;4811112;29;20060;-89
2023/09/21 08:32:16;;;;;;;0.15;0.15;;;;;;;;;;4826246;29;20125;-90
2023/09/21 08:34:44;;;;;;;0.10;0.10;;;;;;;;;;4825948;29;20133;-90
2023/09/21 08:37:11;;;;;;;0.20;0.20;;;;;;;;;;4826348;29;20049;-89
2023/09/21 08:39:37;;;;;;;0.30;0.30;;;;;;;;;;4826382;29;20129;-90
2023/09/21 08:42:03;;;;;;;0.20;0.20;;;;;;;;;;4810820;29;20529;-89
2023/09/21 08:44:29;;;;;;;0.20;0.20;;;;;;;;;;4825977;29;20082;-89
2023/09/21 08:46:55;;;;;;;0.10;0.10;;;;;;;;;;4828554;29;20061;-89
2023/09/21 08:49:21;;;;;;;0.20;0.20;;;;;;;;;;4825652;29;20052;-90
2023/09/21 08:51:48;;;;;;;0.10;0.10;;;;;;;;;;4810467;29;20052;-88
2023/09/21 08:54:15;;;;;;;0.10;0.10;;;;;;;;;;4825420;29;20046;-90
2023/09/21 08:56:43;;;;;;;0.10;0.10;;;;;;;;;;4826180;29;20161;-90
2023/09/21 08:59:09;;;;;;;0.10;0.10;;;;;;;;;;4810864;29;20042;-89
2023/09/21 09:01:35;;;;;;;0.10;0.10;;;;;;;;;;4840958;29;20455;-89
2023/09/21 09:04:01;;;;;;;0.10;0.10;;;;;;;;;;4810555;29;20478;-90
2023/09/21 09:06:29;;;;;;;0.10;0.10;;;;;;;;;;4810670;29;20048;-90
2023/09/21 09:08:55;;;;;;;0.10;0.10;;;;;;;;;;4825714;29;20088;-90
2023/09/21 09:11:36;;;;;;;0.10;0.10;;;;;;;;;;4810183;29;20458;-88
2023/09/21 09:14:02;;;;;;;0.17;0.17;;;;;;;;;;4825286;29;20052;-89
2023/09/21 09:16:29;;;;;;;0.10;0.10;;;;;;;;;;4810449;29;20046;-90
2023/09/21 09:18:57;;;;;;;0.10;0.10;;;;;;;;;;4840921;29;20084;-90
2023/09/21 09:21:23;;;;;;;0.10;0.10;;;;;;;;;;4825573;29;20494;-89
2023/09/21 09:23:48;;;;;;;0.20;0.20;;;;;;;;;;4840449;29;20065;-88
2023/09/21 09:26:16;;;;;;;0.10;0.10;;;;;;;;;;4824723;29;20524;-88
2023/09/21 09:28:42;;;;;;;0.40;0.40;;;;;;;;;;4841648;29;20379;-88
2023/09/21 09:31:11;;;;;;;0.20;0.20;;;;;;;;;;4840287;29;20042;-88
2023/09/21 09:33:37;;;;;;;0.10;0.10;;;;;;;;;;4840190;29;20062;-88
2023/09/21 09:36:03;;;;;;;0.10;0.10;;;;;;;;;;4825050;29;20042;-88
2023/09/21 09:38:29;;;;;;;0.10;0.10;;;;;;;;;;4828280;29;20046;-88
2023/09/21 09:40:56;;;;;;;0.10;0.10;;;;;;;;;;4844874;29;20050;-88
2023/09/21 09:43:22;;;;;;;0.10;0.10;;;;;;;;;;4828881;29;20049;-87
2023/09/21 09:45:48;;;;;;;0.10;0.10;;;;;;;;;;4828283;29;20343;-88
2023/09/21 09:48:16;;;;;;;0.10;0.10;;;;;;;;;;4828480;29;20129;-88
2023/09/21 09:50:42;;;;;;;0.10;0.10;;;;;;;;;;4828520;29;20050;-89
2023/09/21 09:53:10;;;;;;;0.10;0.10;;;;;;;;;;4844692;29;20425;-86
2023/09/21 09:55:37;;;;;;;0.10;0.10;;;;;;;;;;4828727;29;20046;-91
2023/09/21 09:58:03;;;;;;;0.10;0.10;;;;;;;;;;4828369;29;20050;-89
2023/09/21 10:00:29;;;;;;;0.10;0.10;;;;;;;;;;4828254;29;20054;-89
2023/09/21 10:02:56;;;;;;;0.10;0.10;;;;;;;;;;4828146;29;20057;-87
2023/09/21 10:05:24;;;;;;;0.10;0.10;;;;;;;;;;4843238;29;20050;-87
2023/09/21 10:07:50;;;;;;;0.20;0.20;;;;;;;;;;4828178;29;20050;-87
2023/09/21 10:10:19;;;;;;;0.10;0.10;;;;;;;;;;4843073;29;20046;-86
2023/09/21 10:12:45;;;;;;;0.10;0.10;;;;;;;;;;4843233;29;20050;-87
2023/09/21 10:15:16;;;;;;;0.20;0.20;;;;;;;;;;4812762;29;20049;-87
2023/09/21 10:17:42;;;;;;;0.10;0.10;;;;;;;;;;4842793;29;20073;-88
2023/09/21 10:20:14;;;;;;;0.10;0.10;;;;;;;;;;4842479;29;20499;-92
2023/09/21 10:22:43;;;;;;;0.20;0.20;;;;;;;;;;4812852;29;20046;-88
2023/09/21 10:25:10;;;;;;;0.10;0.10;;;;;;;;;;4827193;29;20118;-89
2023/09/21 10:27:36;;;;;;;0.10;0.10;;;;;;;;;;4827502;29;20069;-88
2023/09/21 10:30:06;;;;;;;0.20;0.20;;;;;;;;;;4827962;29;20126;-89
2023/09/21 10:32:42;;;;;;;0.15;0.15;;;;;;;;;;4813216;29;20045;-89
2023/09/21 10:35:11;;;;;;;0.10;0.10;;;;;;;;;;4827641;29;20068;-89
2023/09/21 10:37:37;;;;;;;0.10;0.10;;;;;;;;;;4828020;29;20042;-89
2023/09/21 10:40:08;;;;;;;0.10;0.10;;;;;;;;;;4842838;29;20273;-88
2023/09/21 10:42:34;;;;;;;0.10;0.10;;;;;;;;;;4813212;29;20375;-88
2023/09/21 10:45:02;;;;;;;0.10;0.10;;;;;;;;;;4842730;29;20098;-90
2023/09/21 10:47:31;;;;;;;0.20;0.20;;;;;;;;;;4827497;29;20046;-88
2023/09/21 10:49:58;;;;;;;0.17;0.17;;;;;;;;;;4826419;29;20053;-89
2023/09/21 10:52:25;;;;;;;0.10;0.10;;;;;;;;;;4827448;29;20498;-90
2023/09/21 10:54:52;;;;;;;0.10;0.10;;;;;;;;;;4827427;29;20042;-91
2023/09/21 10:57:21;;;;;;;0.10;0.10;;;;;;;;;;4842695;29;20049;-90
2023/09/21 10:59:49;;;;;;;0.10;0.10;;;;;;;;;;4827955;29;20423;-90
2023/09/21 11:02:15;;;;;;;0.10;0.10;;;;;;;;;;4812773;29;20367;-90
2023/09/21 11:04:41;;;;;;;0.10;0.10;;;;;;;;;;4826919;29;20110;-89
2023/09/21 11:07:08;;;;;;;0.22;0.22;;;;;;;;;;4842392;29;20505;-90
2023/09/21 11:09:35;;;;;;;0.13;0.13;;;;;;;;;;4827009;29;20086;-88
2023/09/21 11:12:01;;;;;;;0.10;0.10;;;;;;;;;;4812166;29;20046;-88
2023/09/21 11:14:26;;;;;;;0.10;0.10;;;;;;;;;;4842165;29;20090;-88
2023/09/21 11:16:53;;;;;;;0.10;0.10;;;;;;;;;;4842089;29;20038;-90
2023/09/21 11:19:19;;;;;;;0.10;0.10;;;;;;;;;;4827623;29;20380;-89
2023/09/21 11:21:45;;;;;;;0.10;0.10;;;;;;;;;;4827204;29;20042;-89
2023/09/21 11:24:11;;;;;;;0.10;0.10;;;;;;;;;;4842082;29;20128;-89
2023/09/21 11:26:39;;;;;;;0.10;0.10;;;;;;;;;;4826775;29;20134;-88
2023/09/21 11:29:07;;;;;;;0.10;0.10;;;;;;;;;;4826686;29;20057;-90
2023/09/21 11:31:33;;;;;;;0.10;0.10;;;;;;;;;;4841777;29;20085;-90
2023/09/21 11:34:05;;;;;;;0.10;0.10;;;;;;;;;;4826752;29;20096;-91
2023/09/21 11:36:31;;;;;;;0.10;0.10;;;;;;;;;;4811824;29;20141;-89
2023/09/21 11:38:57;;;;;;;0.10;0.10;;;;;;;;;;4827052;29;20046;-89
2023/09/21 11:41:23;;;;;;;0.10;0.10;;;;;;;;;;4826690;29;20581;-90
2023/09/21 11:43:50;;;;;;;0.10;0.10;;;;;;;;;;4811668;29;20388;-89
2023/09/21 11:46:16;;;;;;;0.10;0.10;;;;;;;;;;4826715;29;20050;-89
2023/09/21 11:48:43;;;;;;;0.10;0.10;;;;;;;;;;4811630;29;20048;-89
2023/09/21 11:51:10;;;;;;;0.10;0.10;;;;;;;;;;4841736;29;20092;-90
2023/09/21 11:53:36;;;;;;;0.10;0.10;;;;;;;;;;4826850;29;20084;-89
2023/09/21 11:56:02;;;;;;;0.10;0.10;;;;;;;;;;4811837;29;20081;-90
2023/09/21 11:58:33;;;;;;;0.10;0.10;;;;;;;;;;4826481;29;20073;-89
2023/09/21 12:03:33;;;;;;;0.10;0.10;;;;;;;;;;4841475;29;20096;-90
2023/09/21 12:05:59;;;;;;;0.10;0.10;;;;;;;;;;4826309;29;20046;-87
2023/09/21 12:08:25;;;;;;;0.10;0.10;;;;;;;;;;4841369;29;20159;-88
2023/09/21 12:10:52;;;;;;;0.10;0.10;;;;;;;;;;4826250;29;20050;-85
2023/09/21 12:13:18;;;;;;;0.10;0.10;;;;;;;;;;4826509;29;20118;-92
2023/09/21 12:15:44;;;;;;;0.10;0.10;;;;;;;;;;4811031;29;20125;-88
2023/09/21 12:18:10;;;;;;;0.10;0.10;;;;;;;;;;4810856;29;20078;-88
2023/09/21 12:20:37;;;;;;;0.10;0.10;;;;;;;;;;4825389;29;20050;-88
2023/09/21 12:23:05;;;;;;;0.10;0.10;;;;;;;;;;4825750;29;20049;-89
2023/09/21 12:25:32;;;;;;;0.10;0.10;;;;;;;;;;4842810;29;20050;-90
2023/09/21 12:27:58;;;;;;;0.10;0.10;;;;;;;;;;4829147;29;20050;-87
2023/09/21 12:30:24;;;;;;;0.10;0.10;;;;;;;;;;4843864;29;20057;-85
2023/09/21 12:32:50;;;;;;;0.10;0.10;;;;;;;;;;4829129;29;20439;-86
2023/09/21 12:35:25;;;;;;;0.10;0.10;;;;;;;;;;4829020;29;20073;-85
2023/09/21 12:37:51;;;;;;;0.10;0.10;;;;;;;;;;4815270;29;20045;-85
2023/09/21 12:40:17;;;;;;;0.20;0.20;;;;;;;;;;4829044;29;20057;-85
2023/09/21 12:42:43;;;;;;;0.10;0.10;;;;;;;;;;4844132;29;20120;-86
2023/09/21 12:45:14;;;;;;;0.10;0.10;;;;;;;;;;4829041;29;20053;-86
2023/09/21 12:47:40;;;;;;;0.10;0.10;;;;;;;;;;4814363;29;20049;-86
2023/09/21 12:50:08;;;;;;;0.10;0.10;;;;;;;;;;4828710;29;20457;-86
2023/09/21 12:52:34;;;;;;;0.20;0.20;;;;;;;;;;4828670;29;20045;-86
2023/09/21 12:55:05;;;;;;;0.10;0.10;;;;;;;;;;4813738;29;20140;-85
2023/09/21 12:57:34;;;;;;;0.10;0.10;;;;;;;;;;4814314;29;20128;-87
2023/09/21 13:00:00;;;;;;;0.10;0.10;;;;;;;;;;4828950;29;20118;-85
2023/09/21 13:02:26;;;;;;;0.10;0.10;;;;;;;;;;4843793;29;20481;-86
2023/09/21 13:04:55;;;;;;;0.10;0.10;;;;;;;;;;4843728;29;20129;-85
2023/09/21 13:07:24;;;;;;;0.10;0.10;;;;;;;;;;4828636;29;20241;-86
2023/09/21 13:09:50;;;;;;;0.10;0.10;;;;;;;;;;4813467;29;20094;-85
2023/09/21 13:12:16;;;;;;;0.10;0.10;;;;;;;;;;4827964;29;20043;-86
2023/09/21 13:14:43;;;;;;;0.10;0.10;;;;;;;;;;4843434;29;20033;-86
2023/09/21 13:17:09;;;;;;;0.20;0.20;;;;;;;;;;4828598;29;20101;-86
2023/09/21 13:19:36;;;;;;;0.10;0.10;;;;;;;;;;4828406;29;20037;-86
2023/09/21 13:22:02;;;;;;;0.20;0.20;;;;;;;;;;4813642;29;20539;-85
2023/09/21 13:24:28;;;;;;;0.10;0.10;;;;;;;;;;4828376;29;20046;-86
2023/09/21 13:26:54;;;;;;;0.10;0.10;;;;;;;;;;4843368;29;20065;-86
2023/09/21 13:29:20;;;;;;;0.10;0.10;;;;;;;;;;4843480;29;20409;-87
2023/09/21 13:31:46;;;;;;;0.10;0.10;;;;;;;;;;4843297;29;20052;-87
2023/09/21 13:34:12;;;;;;;0.10;0.10;;;;;;;;;;4843076;29;20554;-87
2023/09/21 13:36:38;;;;;;;0.10;0.10;;;;;;;;;;4843361;29;20041;-86
2023/09/21 13:39:05;;;;;;;0.10;0.10;;;;;;;;;;4843265;29;20049;-86
2023/09/21 13:41:31;;;;;;;0.10;0.10;;;;;;;;;;4843304;29;20387;-86
2023/09/21 13:43:57;;;;;;;0.10;0.10;;;;;;;;;;4828234;29;20065;-87
2023/09/21 13:46:23;;;;;;;0.10;0.10;;;;;;;;;;4828481;29;20148;-88
2023/09/21 13:48:49;;;;;;;0.10;0.10;;;;;;;;;;4828153;29;20505;-87
2023/09/21 13:51:16;;;;;;;0.10;0.10;;;;;;;;;;4812865;29;20060;-87
2023/09/21 13:53:42;;;;;;;0.10;0.10;;;;;;;;;;4828257;29;20097;-86
2023/09/21 13:56:08;;;;;;;0.10;0.10;;;;;;;;;;4843158;29;20041;-87
2023/09/21 13:58:36;;;;;;;0.10;0.10;;;;;;;;;;4828099;29;20042;-86
2023/09/21 14:01:02;;;;;;;0.10;0.10;;;;;;;;;;4828178;29;20104;-85
2023/09/21 14:03:28;;;;;;;0.10;0.10;;;;;;;;;;4843151;29;20114;-86
2023/09/21 14:05:54;;;;;;;0.10;0.10;;;;;;;;;;4812803;29;20097;-86
2023/09/21 14:08:22;;;;;;;0.10;0.10;;;;;;;;;;4843331;29;20041;-86
2023/09/21 14:10:48;;;;;;;0.10;0.10;;;;;;;;;;4842995;29;20403;-87
2023/09/21 14:13:15;;;;;;;0.10;0.10;;;;;;;;;;4828256;29;20042;-86
2023/09/21 14:15:41;;;;;;;0.10;0.10;;;;;;;;;;4827941;29;20037;-86
2023/09/21 14:18:07;;;;;;;0.10;0.10;;;;;;;;;;4842949;29;20045;-86
2023/09/21 14:20:33;;;;;;;0.10;0.10;;;;;;;;;;4842827;29;20409;-86
2023/09/21 14:22:59;;;;;;;0.10;0.10;;;;;;;;;;4828889;29;20050;-85
2023/09/21 14:25:25;;;;;;;0.10;0.10;;;;;;;;;;4830987;29;20051;-85
2023/09/21 14:27:51;;;;;;;0.10;0.10;;;;;;;;;;4831081;29;20478;-86
2023/09/21 14:30:18;;;;;;;0.10;0.10;;;;;;;;;;4830852;29;20045;-87
2023/09/21 14:32:44;;;;;;;0.10;0.10;;;;;;;;;;4815786;29;20511;-87
2023/09/21 14:35:10;;;;;;;0.10;0.10;;;;;;;;;;4831020;29;20506;-86
2023/09/21 14:37:37;;;;;;;0.10;0.10;;;;;;;;;;4846123;29;20063;-86
2023/09/21 14:40:05;;;;;;;0.10;0.10;;;;;;;;;;4827962;29;20117;-86
2023/09/21 14:42:31;;;;;;;0.10;0.10;;;;;;;;;;4831062;29;20049;-86
2023/09/21 14:44:57;;;;;;;0.10;0.10;;;;;;;;;;4845975;29;20507;-86